Schedule Details

Flight Number: CPX248
Departure: Theodore Francis Green State Airport (KPVD) at N/A
Arrival: Miami International Airport (KMIA) at N/A
Route: JUMPR RIFLE J174 SWL CEBEE WETRO DIW AR22 JORAY HILEY7


Current Weather Information
KPVD 180651Z AUTO 04004KT 3SM -SN BR OVC037 M02/M03 A2998 RMK AO2 UPB00E05B31E51SNB05E31B51 SLP152 P0001 T10171033
KMIA 180653Z 14007KT 10SM FEW030 SCT045 SCT065 26/23 A3004 RMK AO2 SLP172 T02560233

Route Map